Time;durP1;ratioP1;P1;durP2;ratioP2;P2;SDS_P1;SDS_P2;PMS_P1;PMS_P2;Temp;Humidity;BMP_temperature;BMP_pressure;BME280_temperature;BME280_humidity;BME280_pressure;Samples;Min_cycle;Max_cycle;Signal;HPM_P1;HPM_P2
2023/04/24 00:01:33;;;;;;;;;;;;;;;;;;7366468;19;1305;-64
2023/04/24 00:04:03;;;;;;;;;;;;;;;;;;7367942;19;750;-64
2023/04/24 00:06:33;;;;;;;;;;;;;;;;;;7366432;19;1843;-63
2023/04/24 00:09:02;;;;;;;;;;;;;;;;;;7367428;19;920;-64
2023/04/24 00:11:30;;;;;;;;;;;;;;;;;;7367193;19;1274;-64
2023/04/24 00:13:58;;;;;;;;;;;;;;;;;;7367535;19;845;-64
2023/04/24 00:16:26;;;;;;;;;;;;;;;;;;7366365;19;831;-64
2023/04/24 00:18:55;;;;;;;;;;;;;;;;;;7367848;19;819;-64
2023/04/24 00:21:25;;;;;;;;;;;;;;;;;;7366611;19;1318;-63
2023/04/24 00:23:53;;;;;;;;;;;;;;;;;;7368067;19;878;-62
2023/04/24 00:26:21;;;;;;;;;;;;;;;;;;7366512;19;1844;-62
2023/04/24 00:28:49;;;;;;;;;;;;;;;;;;7366600;19;817;-63
2023/04/24 00:31:18;;;;;;;;;;;;;;;;;;7366295;19;1310;-63
2023/04/24 00:33:46;;;;;;;;;;;;;;;;;;7366038;19;855;-64
2023/04/24 00:36:14;;;;;;;;;;;;;;;;;;7366552;19;815;-65
2023/04/24 00:38:42;;;;;;;;;;;;;;;;;;7366169;19;794;-65
2023/04/24 00:41:10;;;;;;;;;;;;;;;;;;7365019;19;1274;-65
2023/04/24 00:43:38;;;;;;;;;;;;;;;;;;7367537;19;865;-65
2023/04/24 00:46:06;;;;;;;;;;;;;;;;;;7366635;19;822;-66
2023/04/24 00:48:34;;;;;;;;;;;;;;;;;;7366543;19;818;-66
2023/04/24 00:51:02;;;;;;;;;;;;;;;;;;7366104;19;1262;-66
2023/04/24 00:53:31;;;;;;;;;;;;;;;;;;7367199;19;829;-66
2023/04/24 00:55:59;;;;;;;;;;;;;;;;;;7366555;19;803;-65
2023/04/24 00:58:27;;;;;;;;;;;;;;;;;;7364615;19;833;-65
2023/04/24 01:00:55;;;;;;;;;;;;;;;;;;7364378;19;1282;-66
2023/04/24 01:03:23;;;;;;;;;;;;;;;;;;7361878;19;785;-65
2023/04/24 01:05:52;;;;;;;;;;;;;;;;;;7368849;19;1017;-64
2023/04/24 01:08:20;;;;;;;;;;;;;;;;;;7362536;19;1873;-65
2023/04/24 01:10:48;;;;;;;;;;;;;;;;;;7365288;19;1184;-65
2023/04/24 01:13:16;;;;;;;;;;;;;;;;;;7364644;19;806;-65
2023/04/24 01:15:46;;;;;;;;;;;;;;;;;;7364524;19;875;-65
2023/04/24 01:18:14;;;;;;;;;;;;;;;;;;7365345;19;798;-65
2023/04/24 01:20:44;;;;;;;;;;;;;;;;;;7369524;19;1345;-66
2023/04/24 01:23:12;;;;;;;;;;;;;;;;;;7365050;19;795;-65
2023/04/24 01:25:40;;;;;;;;;;;;;;;;;;7365319;19;896;-66
2023/04/24 01:28:08;;;;;;;;;;;;;;;;;;7363231;19;1841;-65
2023/04/24 01:30:36;;;;;;;;;;;;;;;;;;7364564;19;885;-65
2023/04/24 01:33:05;;;;;;;;;;;;;;;;;;7366118;19;772;-65
2023/04/24 01:35:33;;;;;;;;;;;;;;;;;;7364489;19;866;-65
2023/04/24 01:38:01;;;;;;;;;;;;;;;;;;7365083;19;849;-64
2023/04/24 01:40:29;;;;;;;;;;;;;;;;;;7365570;19;797;-65
2023/04/24 01:42:59;;;;;;;;;;;;;;;;;;7362580;19;1395;-65
2023/04/24 01:45:27;;;;;;;;;;;;;;;;;;7363495;19;926;-66
2023/04/24 01:47:55;;;;;;;;;;;;;;;;;;7362104;19;1857;-62
2023/04/24 01:50:25;;;;;;;;;;;;;;;;;;7365125;19;847;-65
2023/04/24 01:52:53;;;;;;;;;;;;;;;;;;7360745;19;1341;-65
2023/04/24 01:55:21;;;;;;;;;;;;;;;;;;7364783;19;852;-65
2023/04/24 01:57:50;;;;;;;;;;;;;;;;;;7362988;19;897;-66
2023/04/24 02:00:18;;;;;;;;;;;;;;;;;;7362804;19;818;-65
2023/04/24 02:02:47;;;;;;;;;;;;;;;;;;7361986;19;1266;-67
2023/04/24 02:05:15;;;;;;;;;;;;;;;;;;7363000;19;744;-65
2023/04/24 02:07:43;;;;;;;;;;;;;;;;;;7360788;19;1834;-66
2023/04/24 02:10:11;;;;;;;;;;;;;;;;;;7363115;19;801;-66
2023/04/24 02:12:44;;;;;;;;;;;;;;;;;;7362028;19;1398;-65
2023/04/24 02:15:12;;;;;;;;;;;;;;;;;;7366540;19;817;-66
2023/04/24 02:17:40;;;;;;;;;;;;;;;;;;7368523;19;755;-66
2023/04/24 02:20:08;;;;;;;;;;;;;;;;;;7370479;19;806;-65
2023/04/24 02:22:36;;;;;;;;;;;;;;;;;;7368585;19;1267;-64
2023/04/24 02:25:04;;;;;;;;;;;;;;;;;;7368702;19;847;-63
2023/04/24 02:27:33;;;;;;;;;;;;;;;;;;7368081;19;1857;-64
2023/04/24 02:30:01;;;;;;;;;;;;;;;;;;7369364;19;813;-64
2023/04/24 02:32:30;;;;;;;;;;;;;;;;;;7367112;19;1309;-64
2023/04/24 02:34:59;;;;;;;;;;;;;;;;;;7370364;19;801;-66
2023/04/24 02:37:27;;;;;;;;;;;;;;;;;;7370855;19;781;-64
2023/04/24 02:39:55;;;;;;;;;;;;;;;;;;7368549;19;861;-64
2023/04/24 02:42:23;;;;;;;;;;;;;;;;;;7367395;19;1215;-64
2023/04/24 02:44:51;;;;;;;;;;;;;;;;;;7369708;19;794;-64
2023/04/24 02:47:19;;;;;;;;;;;;;;;;;;7368247;19;1861;-65
2023/04/24 02:49:47;;;;;;;;;;;;;;;;;;7368806;19;809;-65
2023/04/24 02:52:16;;;;;;;;;;;;;;;;;;7367515;19;1287;-65
2023/04/24 02:54:44;;;;;;;;;;;;;;;;;;7368789;19;910;-65
2023/04/24 02:57:12;;;;;;;;;;;;;;;;;;7368244;19;814;-65
2023/04/24 02:59:43;;;;;;;;;;;;;;;;;;7367062;19;922;-65
2023/04/24 03:02:11;;;;;;;;;;;;;;;;;;7368562;19;1219;-65
2023/04/24 03:04:39;;;;;;;;;;;;;;;;;;7369408;19;813;-66
2023/04/24 03:07:07;;;;;;;;;;;;;;;;;;7369466;19;1844;-66
2023/04/24 03:09:36;;;;;;;;;;;;;;;;;;7367208;19;849;-65
2023/04/24 03:12:04;;;;;;;;;;;;;;;;;;7367641;19;1329;-64
2023/04/24 03:14:33;;;;;;;;;;;;;;;;;;7369275;19;870;-65
2023/04/24 03:17:01;;;;;;;;;;;;;;;;;;7369191;19;746;-65
2023/04/24 03:19:29;;;;;;;;;;;;;;;;;;7370105;19;1311;-65
2023/04/24 03:22:06;;;;;;;;;;;;;;;;;;7367185;19;1372;-65
2023/04/24 03:24:34;;;;;;;;;;;;;;;;;;7367441;19;852;-65
2023/04/24 03:27:03;;;;;;;;;;;;;;;;;;7366442;19;1857;-65
2023/04/24 03:29:47;;;;;;;;;;;;;;;;;;7366926;19;911;-65
2023/04/24 03:32:16;;;;;;;;;;;;;;;;;;7368336;19;1337;-64
2023/04/24 03:34:44;;;;;;;;;;;;;;;;;;7367532;19;770;-63
2023/04/24 03:37:15;;;;;;;;;;;;;;;;;;7367103;19;768;-65
2023/04/24 03:39:49;;;;;;;;;;;;;;;;;;7366397;19;759;-65
2023/04/24 03:42:19;;;;;;;;;;;;;;;;;;7365061;19;1380;-65
2023/04/24 03:44:53;;;;;;;;;;;;;;;;;;7366542;19;739;-64
2023/04/24 03:47:24;;;;;;;;;;;;;;;;;;7366051;19;1850;-65
2023/04/24 03:49:55;;;;;;;;;;;;;;;;;;7365917;19;931;-66
2023/04/24 03:52:23;;;;;;;;;;;;;;;;;;7365154;19;1270;-65
2023/04/24 03:54:52;;;;;;;;;;;;;;;;;;7368205;19;892;-64
2023/04/24 03:57:20;;;;;;;;;;;;;;;;;;7367071;19;731;-65
2023/04/24 04:00:00;;;;;;;;;;;;;;;;;;7366641;19;711;-65
2023/04/24 04:02:28;;;;;;;;;;;;;;;;;;7364215;19;1336;-65
2023/04/24 04:04:56;;;;;;;;;;;;;;;;;;7367252;19;876;-65
2023/04/24 04:07:25;;;;;;;;;;;;;;;;;;7367784;19;1846;-63
2023/04/24 04:09:53;;;;;;;;;;;;;;;;;;7366262;19;911;-64
2023/04/24 04:12:21;;;;;;;;;;;;;;;;;;7364517;19;1247;-66
2023/04/24 04:14:49;;;;;;;;;;;;;;;;;;7365935;19;819;-66
2023/04/24 04:17:17;;;;;;;;;;;;;;;;;;7366188;19;810;-65
2023/04/24 04:19:46;;;;;;;;;;;;;;;;;;7365786;19;840;-65
2023/04/24 04:22:14;;;;;;;;;;;;;;;;;;7364908;19;1262;-65
2023/04/24 04:24:50;;;;;;;;;;;;;;;;;;7366627;19;810;-65
2023/04/24 04:27:21;;;;;;;;;;;;;;;;;;7366406;19;1864;-66
2023/04/24 04:30:09;;;;;;;;;;;;;;;;;;7367586;19;1132;-66
2023/04/24 04:32:51;;;;;;;;;;;;;;;;;;7364517;19;1331;-67
2023/04/24 04:35:19;;;;;;;;;;;;;;;;;;7367093;19;797;-65
2023/04/24 04:37:47;;;;;;;;;;;;;;;;;;7365169;19;913;-65
2023/04/24 04:40:22;;;;;;;;;;;;;;;;;;7367168;19;771;-65
2023/04/24 04:42:56;;;;;;;;;;;;;;;;;;7364621;19;1264;-67
2023/04/24 04:45:26;;;;;;;;;;;;;;;;;;7366439;19;836;-66
2023/04/24 04:48:14;;;;;;;;;;;;;;;;;;7366008;19;1841;-65
2023/04/24 04:50:42;;;;;;;;;;;;;;;;;;7366036;19;1345;-66
2023/04/24 04:53:11;;;;;;;;;;;;;;;;;;7365534;19;766;-66
2023/04/24 04:55:40;;;;;;;;;;;;;;;;;;7365585;19;872;-66
2023/04/24 04:58:13;;;;;;;;;;;;;;;;;;7364596;19;1320;-65
2023/04/24 05:00:42;;;;;;;;;;;;;;;;;;7365452;19;1305;-66
2023/04/24 05:03:25;;;;;;;;;;;;;;;;;;7365846;19;800;-66
2023/04/24 05:06:05;;;;;;;;;;;;;;;;;;7365249;19;783;-66
2023/04/24 05:08:36;;;;;;;;;;;;;;;;;;7362452;19;1860;-66
2023/04/24 05:11:06;;;;;;;;;;;;;;;;;;7363854;19;1309;-66
2023/04/24 05:13:34;;;;;;;;;;;;;;;;;;7365636;19;868;-66
2023/04/24 05:16:03;;;;;;;;;;;;;;;;;;7364820;19;860;-64
2023/04/24 05:18:32;;;;;;;;;;;;;;;;;;7363364;19;833;-65
2023/04/24 05:21:01;;;;;;;;;;;;;;;;;;7363674;19;1337;-67
2023/04/24 05:23:29;;;;;;;;;;;;;;;;;;7363820;19;864;-66
2023/04/24 05:25:58;;;;;;;;;;;;;;;;;;7363633;19;798;-66
2023/04/24 05:28:28;;;;;;;;;;;;;;;;;;7362836;19;1838;-66
2023/04/24 05:31:05;;;;;;;;;;;;;;;;;;7363090;19;1281;-65
2023/04/24 05:33:33;;;;;;;;;;;;;;;;;;7364017;19;885;-66
2023/04/24 05:36:01;;;;;;;;;;;;;;;;;;7365331;19;1701;-66
2023/04/24 05:38:29;;;;;;;;;;;;;;;;;;7368720;19;1764;-64
2023/04/24 05:40:57;;;;;;;;;;;;;;;;;;7364954;19;1336;-66
2023/04/24 05:43:25;;;;;;;;;;;;;;;;;;7363284;19;807;-65
2023/04/24 05:45:53;;;;;;;;;;;;;;;;;;7362713;19;826;-65
2023/04/24 05:48:22;;;;;;;;;;;;;;;;;;7360143;19;1856;-65
2023/04/24 05:50:50;;;;;;;;;;;;;;;;;;7361302;19;1341;-65
2023/04/24 05:53:19;;;;;;;;;;;;;;;;;;7363397;19;846;-66
2023/04/24 05:55:47;;;;;;;;;;;;;;;;;;7362350;19;834;-64
2023/04/24 05:58:15;;;;;;;;;;;;;;;;;;7362274;19;782;-64
2023/04/24 06:00:46;;;;;;;;;;;;;;;;;;7363378;19;1254;-66
2023/04/24 06:03:14;;;;;;;;;;;;;;;;;;7363054;19;748;-64
2023/04/24 06:05:42;;;;;;;;;;;;;;;;;;7361753;19;772;-65
2023/04/24 06:08:10;;;;;;;;;;;;;;;;;;7361244;19;1829;-66
2023/04/24 06:10:41;;;;;;;;;;;;;;;;;;7362334;19;745;-66
2023/04/24 06:13:11;;;;;;;;;;;;;;;;;;7362226;19;838;-66
2023/04/24 06:15:42;;;;;;;;;;;;;;;;;;7361735;19;864;-66
2023/04/24 06:18:13;;;;;;;;;;;;;;;;;;7361372;19;777;-65
2023/04/24 06:20:43;;;;;;;;;;;;;;;;;;7362175;19;1289;-66
2023/04/24 06:23:11;;;;;;;;;;;;;;;;;;7361746;19;849;-65
2023/04/24 06:25:39;;;;;;;;;;;;;;;;;;7360712;19;795;-65
2023/04/24 06:28:08;;;;;;;;;;;;;;;;;;7362260;19;1842;-66
2023/04/24 06:30:36;;;;;;;;;;;;;;;;;;7362353;19;862;-65
2023/04/24 06:33:04;;;;;;;;;;;;;;;;;;7361500;19;1391;-65
2023/04/24 06:35:32;;;;;;;;;;;;;;;;;;7361937;19;806;-66
2023/04/24 06:38:01;;;;;;;;;;;;;;;;;;7361834;19;849;-65
2023/04/24 06:40:29;;;;;;;;;;;;;;;;;;7363583;19;798;-65
2023/04/24 06:42:57;;;;;;;;;;;;;;;;;;7361481;19;1282;-66
2023/04/24 06:45:25;;;;;;;;;;;;;;;;;;7362982;19;807;-66
2023/04/24 06:47:54;;;;;;;;;;;;;;;;;;7363062;19;849;-66
2023/04/24 06:50:22;;;;;;;;;;;;;;;;;;7363700;19;827;-66
2023/04/24 06:52:50;;;;;;;;;;;;;;;;;;7361371;19;1266;-66
2023/04/24 06:55:18;;;;;;;;;;;;;;;;;;7363261;19;794;-65
2023/04/24 06:57:46;;;;;;;;;;;;;;;;;;7362495;19;809;-66
2023/04/24 07:00:15;;;;;;;;;;;;;;;;;;7367430;19;857;-67
2023/04/24 07:02:43;;;;;;;;;;;;;;;;;;7371835;19;1286;-66
2023/04/24 07:05:12;;;;;;;;;;;;;;;;;;7373566;19;815;-65
2023/04/24 07:07:40;;;;;;;;;;;;;;;;;;7372350;19;771;-62
2023/04/24 07:10:08;;;;;;;;;;;;;;;;;;7372011;19;1853;-66
2023/04/24 07:12:37;;;;;;;;;;;;;;;;;;7374147;19;1270;-66
2023/04/24 07:15:05;;;;;;;;;;;;;;;;;;7374831;19;778;-66
2023/04/24 07:17:33;;;;;;;;;;;;;;;;;;7374512;19;813;-67
2023/04/24 07:20:01;;;;;;;;;;;;;;;;;;7374329;19;825;-67
2023/04/24 07:22:29;;;;;;;;;;;;;;;;;;7370830;19;1334;-65
2023/04/24 07:24:57;;;;;;;;;;;;;;;;;;7371546;19;877;-65
2023/04/24 07:27:25;;;;;;;;;;;;;;;;;;7371058;19;855;-67
2023/04/24 07:29:54;;;;;;;;;;;;;;;;;;7371006;19;1850;-66
2023/04/24 07:32:22;;;;;;;;;;;;;;;;;;7374469;19;1270;-67
2023/04/24 07:34:50;;;;;;;;;;;;;;;;;;7370879;19;1526;-68
2023/04/24 07:37:18;;;;;;;;;;;;;;;;;;7369864;19;852;-66
2023/04/24 07:39:46;;;;;;;;;;;;;;;;;;7370063;19;786;-68
2023/04/24 07:42:14;;;;;;;;;;;;;;;;;;7368499;19;1222;-66
2023/04/24 07:44:42;;;;;;;;;;;;;;;;;;7369166;19;831;-67
2023/04/24 07:47:10;;;;;;;;;;;;;;;;;;7368482;19;888;-66
2023/04/24 07:49:39;;;;;;;;;;;;;;;;;;7366686;19;1853;-68
2023/04/24 07:52:07;;;;;;;;;;;;;;;;;;7367266;19;1348;-66
2023/04/24 07:54:36;;;;;;;;;;;;;;;;;;7369003;19;806;-65
2023/04/24 07:57:06;;;;;;;;;;;;;;;;;;7367739;19;831;-65
2023/04/24 07:59:34;;;;;;;;;;;;;;;;;;7366792;19;748;-66
2023/04/24 08:02:03;;;;;;;;;;;;;;;;;;7366025;19;1323;-65
2023/04/24 08:04:31;;;;;;;;;;;;;;;;;;7368117;19;753;-65
2023/04/24 08:06:59;;;;;;;;;;;;;;;;;;7367675;19;830;-65
2023/04/24 08:09:27;;;;;;;;;;;;;;;;;;7365725;19;1846;-66
2023/04/24 08:11:56;;;;;;;;;;;;;;;;;;7366279;19;1317;-66
2023/04/24 08:14:24;;;;;;;;;;;;;;;;;;7366268;19;798;-63
2023/04/24 08:16:52;;;;;;;;;;;;;;;;;;7367525;19;789;-64
2023/04/24 08:19:21;;;;;;;;;;;;;;;;;;7366099;19;869;-64
2023/04/24 08:21:49;;;;;;;;;;;;;;;;;;7366110;19;1278;-65
2023/04/24 08:24:17;;;;;;;;;;;;;;;;;;7367480;19;762;-64
2023/04/24 08:26:45;;;;;;;;;;;;;;;;;;7367503;19;825;-65
2023/04/24 08:29:13;;;;;;;;;;;;;;;;;;7364908;19;1853;-66
2023/04/24 08:31:41;;;;;;;;;;;;;;;;;;7366188;19;1266;-66
2023/04/24 08:34:09;;;;;;;;;;;;;;;;;;7367429;19;825;-65
2023/04/24 08:36:38;;;;;;;;;;;;;;;;;;7367522;19;856;-66
2023/04/24 08:39:06;;;;;;;;;;;;;;;;;;7366192;19;829;-66
2023/04/24 08:41:34;;;;;;;;;;;;;;;;;;7365701;19;1219;-64
2023/04/24 08:44:02;;;;;;;;;;;;;;;;;;7367419;19;821;-66
2023/04/24 08:46:31;;;;;;;;;;;;;;;;;;7367159;19;772;-65
2023/04/24 08:48:59;;;;;;;;;;;;;;;;;;7364983;19;1833;-67
2023/04/24 08:51:27;;;;;;;;;;;;;;;;;;7365846;19;1254;-64
2023/04/24 08:53:55;;;;;;;;;;;;;;;;;;7366541;19;857;-66
2023/04/24 08:56:23;;;;;;;;;;;;;;;;;;7366681;19;869;-66
2023/04/24 08:58:51;;;;;;;;;;;;;;;;;;7365814;19;777;-63
2023/04/24 09:01:19;;;;;;;;;;;;;;;;;;7365390;19;1277;-65
2023/04/24 09:03:48;;;;;;;;;;;;;;;;;;7367197;19;809;-63
2023/04/24 09:06:16;;;;;;;;;;;;;;;;;;7366149;19;825;-64
2023/04/24 09:08:44;;;;;;;;;;;;;;;;;;7365569;19;1845;-62
2023/04/24 09:11:12;;;;;;;;;;;;;;;;;;7366531;19;1344;-65
2023/04/24 09:13:40;;;;;;;;;;;;;;;;;;7365988;19;877;-65
2023/04/24 09:16:08;;;;;;;;;;;;;;;;;;7365674;19;786;-63
2023/04/24 09:18:37;;;;;;;;;;;;;;;;;;7364479;19;777;-65
2023/04/24 09:21:05;;;;;;;;;;;;;;;;;;7363550;19;1337;-65
2023/04/24 09:23:33;;;;;;;;;;;;;;;;;;7365818;19;762;-66
2023/04/24 09:26:01;;;;;;;;;;;;;;;;;;7363723;19;780;-64
2023/04/24 09:28:30;;;;;;;;;;;;;;;;;;7365246;19;793;-65
2023/04/24 09:30:58;;;;;;;;;;;;;;;;;;7362742;19;1873;-65
2023/04/24 09:33:26;;;;;;;;;;;;;;;;;;7364050;19;864;-67
2023/04/24 09:35:54;;;;;;;;;;;;;;;;;;7365184;19;740;-66
2023/04/24 09:38:22;;;;;;;;;;;;;;;;;;7364665;19;791;-66
2023/04/24 09:40:51;;;;;;;;;;;;;;;;;;7364480;19;1325;-66
2023/04/24 09:43:19;;;;;;;;;;;;;;;;;;7365747;19;846;-65
2023/04/24 09:45:47;;;;;;;;;;;;;;;;;;7364052;19;813;-66
2023/04/24 09:48:15;;;;;;;;;;;;;;;;;;7364086;19;817;-66
2023/04/24 09:50:43;;;;;;;;;;;;;;;;;;7362885;19;1857;-66
2023/04/24 09:53:11;;;;;;;;;;;;;;;;;;7364670;19;829;-66
2023/04/24 09:55:40;;;;;;;;;;;;;;;;;;7364141;19;761;-65
2023/04/24 09:58:08;;;;;;;;;;;;;;;;;;7363669;19;868;-65
2023/04/24 10:00:36;;;;;;;;;;;;;;;;;;7364350;19;865;-66
2023/04/24 10:03:04;;;;;;;;;;;;;;;;;;7361586;19;1415;-65
2023/04/24 10:05:32;;;;;;;;;;;;;;;;;;7363538;19;762;-66
2023/04/24 10:08:00;;;;;;;;;;;;;;;;;;7363145;19;793;-65
2023/04/24 10:10:29;;;;;;;;;;;;;;;;;;7362444;19;1838;-66
2023/04/24 10:12:57;;;;;;;;;;;;;;;;;;7360943;19;1333;-63
2023/04/24 10:15:25;;;;;;;;;;;;;;;;;;7363635;19;973;-65
2023/04/24 10:17:54;;;;;;;;;;;;;;;;;;7363576;19;822;-64
2023/04/24 10:20:22;;;;;;;;;;;;;;;;;;7364356;19;797;-65
2023/04/24 10:22:51;;;;;;;;;;;;;;;;;;7361570;19;1782;-64
2023/04/24 10:25:20;;;;;;;;;;;;;;;;;;7363066;19;945;-65
2023/04/24 10:27:48;;;;;;;;;;;;;;;;;;7362789;19;802;-64
2023/04/24 10:30:16;;;;;;;;;;;;;;;;;;7361535;19;1841;-64
2023/04/24 10:32:44;;;;;;;;;;;;;;;;;;7360708;19;1282;-63
2023/04/24 10:35:12;;;;;;;;;;;;;;;;;;7362424;19;873;-63
2023/04/24 10:37:40;;;;;;;;;;;;;;;;;;7366961;19;782;-61
2023/04/24 10:40:09;;;;;;;;;;;;;;;;;;7369111;19;787;-63
2023/04/24 10:42:37;;;;;;;;;;;;;;;;;;7367757;19;1270;-65
2023/04/24 10:45:05;;;;;;;;;;;;;;;;;;7368515;19;765;-65
2023/04/24 10:47:33;;;;;;;;;;;;;;;;;;7367907;19;800;-66
2023/04/24 10:50:02;;;;;;;;;;;;;;;;;;7368233;19;1855;-65
2023/04/24 10:52:30;;;;;;;;;;;;;;;;;;7367626;19;1306;-64
2023/04/24 10:54:59;;;;;;;;;;;;;;;;;;7368841;19;860;-64
2023/04/24 10:57:28;;;;;;;;;;;;;;;;;;7368481;19;796;-64
2023/04/24 10:59:56;;;;;;;;;;;;;;;;;;7369023;19;848;-65
2023/04/24 11:02:25;;;;;;;;;;;;;;;;;;7367613;19;1341;-66
2023/04/24 11:04:53;;;;;;;;;;;;;;;;;;7369038;19;856;-64
2023/04/24 11:07:21;;;;;;;;;;;;;;;;;;7368415;19;801;-65
2023/04/24 11:09:49;;;;;;;;;;;;;;;;;;7367581;19;1857;-65
2023/04/24 11:12:18;;;;;;;;;;;;;;;;;;7366824;19;1328;-64
2023/04/24 11:14:46;;;;;;;;;;;;;;;;;;7369106;19;882;-64
2023/04/24 11:17:14;;;;;;;;;;;;;;;;;;7368416;19;817;-65
2023/04/24 11:19:42;;;;;;;;;;;;;;;;;;7367822;19;790;-64
2023/04/24 11:22:11;;;;;;;;;;;;;;;;;;7369117;19;1282;-65
2023/04/24 11:24:39;;;;;;;;;;;;;;;;;;7368657;19;795;-65
2023/04/24 11:27:13;;;;;;;;;;;;;;;;;;7365547;19;723;-65
2023/04/24 11:29:42;;;;;;;;;;;;;;;;;;7367683;19;1846;-65
2023/04/24 11:32:10;;;;;;;;;;;;;;;;;;7365859;19;1274;-65
2023/04/24 11:34:38;;;;;;;;;;;;;;;;;;7367291;19;739;-65
2023/04/24 11:37:07;;;;;;;;;;;;;;;;;;7367878;19;923;-64
2023/04/24 11:39:35;;;;;;;;;;;;;;;;;;7367479;19;912;-66
2023/04/24 11:42:03;;;;;;;;;;;;;;;;;;7366470;19;1286;-66
2023/04/24 11:44:31;;;;;;;;;;;;;;;;;;7369112;19;915;-66
2023/04/24 11:46:59;;;;;;;;;;;;;;;;;;7366528;19;798;-66
2023/04/24 11:49:27;;;;;;;;;;;;;;;;;;7366134;19;1838;-63
2023/04/24 11:51:56;;;;;;;;;;;;;;;;;;7364085;19;1278;-65
2023/04/24 11:54:24;;;;;;;;;;;;;;;;;;7367643;19;802;-65
2023/04/24 11:56:52;;;;;;;;;;;;;;;;;;7366329;19;802;-64
2023/04/24 11:59:20;;;;;;;;;;;;;;;;;;7365960;19;869;-65
2023/04/24 12:01:48;;;;;;;;;;;;;;;;;;7366224;19;1273;-65
2023/04/24 12:04:16;;;;;;;;;;;;;;;;;;7367694;19;1659;-65
2023/04/24 12:06:44;;;;;;;;;;;;;;;;;;7366868;19;801;-65
2023/04/24 12:09:12;;;;;;;;;;;;;;;;;;7366440;19;802;-63
2023/04/24 12:11:41;;;;;;;;;;;;;;;;;;7364856;19;1845;-63
2023/04/24 12:14:09;;;;;;;;;;;;;;;;;;7366878;19;877;-63
2023/04/24 12:16:37;;;;;;;;;;;;;;;;;;7367653;19;853;-64
2023/04/24 12:19:05;;;;;;;;;;;;;;;;;;7366465;19;1770;-64
2023/04/24 12:21:34;;;;;;;;;;;;;;;;;;7366213;19;1300;-64
2023/04/24 12:24:02;;;;;;;;;;;;;;;;;;7367859;19;806;-65
2023/04/24 12:26:30;;;;;;;;;;;;;;;;;;7366367;19;809;-64
2023/04/24 12:28:58;;;;;;;;;;;;;;;;;;7366280;19;838;-64
2023/04/24 12:31:29;;;;;;;;;;;;;;;;;;7364382;19;1839;-65
2023/04/24 12:33:57;;;;;;;;;;;;;;;;;;7366398;19;774;-66
2023/04/24 12:36:26;;;;;;;;;;;;;;;;;;7365979;19;864;-65
2023/04/24 12:38:54;;;;;;;;;;;;;;;;;;7366119;19;838;-64
2023/04/24 12:41:22;;;;;;;;;;;;;;;;;;7365847;19;1285;-65
2023/04/24 12:43:50;;;;;;;;;;;;;;;;;;7366695;19;866;-66
2023/04/24 12:46:18;;;;;;;;;;;;;;;;;;7366285;19;805;-64
2023/04/24 12:48:46;;;;;;;;;;;;;;;;;;7365759;19;878;-65
2023/04/24 12:51:14;;;;;;;;;;;;;;;;;;7368964;19;1871;-64
2023/04/24 12:53:43;;;;;;;;;;;;;;;;;;7366141;19;802;-65
2023/04/24 12:56:11;;;;;;;;;;;;;;;;;;7367038;19;777;-65
2023/04/24 12:58:39;;;;;;;;;;;;;;;;;;7366436;19;762;-66
2023/04/24 13:01:07;;;;;;;;;;;;;;;;;;7365722;19;1345;-65
2023/04/24 13:03:35;;;;;;;;;;;;;;;;;;7366575;19;862;-66
2023/04/24 13:06:03;;;;;;;;;;;;;;;;;;7365656;19;850;-67
2023/04/24 13:08:31;;;;;;;;;;;;;;;;;;7365294;19;756;-63
2023/04/24 13:10:59;;;;;;;;;;;;;;;;;;7363379;19;1853;-66
2023/04/24 13:13:28;;;;;;;;;;;;;;;;;;7364734;19;870;-66
2023/04/24 13:15:56;;;;;;;;;;;;;;;;;;7364617;19;810;-65
2023/04/24 13:18:24;;;;;;;;;;;;;;;;;;7364605;19;865;-65
2023/04/24 13:20:52;;;;;;;;;;;;;;;;;;7365951;19;1306;-64
2023/04/24 13:23:20;;;;;;;;;;;;;;;;;;7365870;19;856;-66
2023/04/24 13:25:49;;;;;;;;;;;;;;;;;;7365603;19;786;-64
2023/04/24 13:28:17;;;;;;;;;;;;;;;;;;7363922;19;863;-65
2023/04/24 13:30:45;;;;;;;;;;;;;;;;;;7363027;19;1855;-66
2023/04/24 13:33:13;;;;;;;;;;;;;;;;;;7365934;19;786;-65
2023/04/24 13:35:42;;;;;;;;;;;;;;;;;;7365745;19;790;-66
2023/04/24 13:38:10;;;;;;;;;;;;;;;;;;7365268;19;798;-65
2023/04/24 13:40:38;;;;;;;;;;;;;;;;;;7366051;19;842;-66
2023/04/24 13:43:06;;;;;;;;;;;;;;;;;;7362168;19;1298;-65
2023/04/24 13:45:34;;;;;;;;;;;;;;;;;;7364505;19;891;-66
2023/04/24 13:48:03;;;;;;;;;;;;;;;;;;7362844;19;804;-65
2023/04/24 13:50:31;;;;;;;;;;;;;;;;;;7364449;19;1841;-66
2023/04/24 13:52:59;;;;;;;;;;;;;;;;;;7360098;19;1365;-66
2023/04/24 13:55:28;;;;;;;;;;;;;;;;;;7363256;19;871;-65
2023/04/24 13:57:56;;;;;;;;;;;;;;;;;;7363924;19;814;-66
2023/04/24 14:00:24;;;;;;;;;;;;;;;;;;7364731;19;916;-66
2023/04/24 14:02:52;;;;;;;;;;;;;;;;;;7361425;19;1239;-66
2023/04/24 14:05:21;;;;;;;;;;;;;;;;;;7364001;19;794;-66
2023/04/24 14:07:50;;;;;;;;;;;;;;;;;;7363245;19;774;-66
2023/04/24 14:10:18;;;;;;;;;;;;;;;;;;7363829;19;1889;-66
2023/04/24 14:12:46;;;;;;;;;;;;;;;;;;7367945;19;1361;-66
2023/04/24 14:15:15;;;;;;;;;;;;;;;;;;7370191;19;763;-66
2023/04/24 14:17:44;;;;;;;;;;;;;;;;;;7369844;19;808;-68
2023/04/24 14:20:12;;;;;;;;;;;;;;;;;;7370886;19;845;-66
2023/04/24 14:22:40;;;;;;;;;;;;;;;;;;7368369;19;1305;-67
2023/04/24 14:25:08;;;;;;;;;;;;;;;;;;7369578;19;815;-66
2023/04/24 14:27:37;;;;;;;;;;;;;;;;;;7367661;19;869;-64
2023/04/24 14:30:05;;;;;;;;;;;;;;;;;;7370025;19;806;-66
2023/04/24 14:32:33;;;;;;;;;;;;;;;;;;7367387;19;1845;-66
2023/04/24 14:35:01;;;;;;;;;;;;;;;;;;7369106;19;822;-65
2023/04/24 14:37:30;;;;;;;;;;;;;;;;;;7369659;19;869;-67
2023/04/24 14:39:58;;;;;;;;;;;;;;;;;;7368576;19;963;-66
2023/04/24 14:42:28;;;;;;;;;;;;;;;;;;7368375;19;1277;-67
2023/04/24 14:44:56;;;;;;;;;;;;;;;;;;7369418;19;802;-65
2023/04/24 14:47:24;;;;;;;;;;;;;;;;;;7368958;19;843;-67
2023/04/24 14:49:52;;;;;;;;;;;;;;;;;;7366532;19;742;-66
2023/04/24 14:52:20;;;;;;;;;;;;;;;;;;7367405;19;1857;-66
2023/04/24 14:54:49;;;;;;;;;;;;;;;;;;7368897;19;861;-67
2023/04/24 14:57:17;;;;;;;;;;;;;;;;;;7368546;19;812;-66
2023/04/24 14:59:45;;;;;;;;;;;;;;;;;;7368933;19;751;-67
2023/04/24 15:02:13;;;;;;;;;;;;;;;;;;7367946;19;1278;-66
2023/04/24 15:04:41;;;;;;;;;;;;;;;;;;7367866;19;837;-66
2023/04/24 15:07:09;;;;;;;;;;;;;;;;;;7368038;19;797;-66
2023/04/24 15:09:37;;;;;;;;;;;;;;;;;;7365107;19;821;-66
2023/04/24 15:12:06;;;;;;;;;;;;;;;;;;7366285;19;1868;-65
2023/04/24 15:14:34;;;;;;;;;;;;;;;;;;7368475;19;825;-65
2023/04/24 15:17:02;;;;;;;;;;;;;;;;;;7366383;19;842;-65
2023/04/24 15:19:30;;;;;;;;;;;;;;;;;;7366386;19;817;-66
2023/04/24 15:21:58;;;;;;;;;;;;;;;;;;7365373;19;1278;-66
2023/04/24 15:24:26;;;;;;;;;;;;;;;;;;7367263;19;859;-65
2023/04/24 15:26:55;;;;;;;;;;;;;;;;;;7367704;19;822;-66
2023/04/24 15:29:23;;;;;;;;;;;;;;;;;;7366425;19;838;-66
2023/04/24 15:31:51;;;;;;;;;;;;;;;;;;7366827;19;1865;-66
2023/04/24 15:34:19;;;;;;;;;;;;;;;;;;7367546;19;873;-64
2023/04/24 15:36:47;;;;;;;;;;;;;;;;;;7367380;19;811;-66
2023/04/24 15:39:15;;;;;;;;;;;;;;;;;;7365986;19;803;-65
2023/04/24 15:41:44;;;;;;;;;;;;;;;;;;7367112;19;1417;-65
2023/04/24 15:44:12;;;;;;;;;;;;;;;;;;7366945;19;742;-65
2023/04/24 15:46:40;;;;;;;;;;;;;;;;;;7367062;19;797;-66
2023/04/24 15:49:08;;;;;;;;;;;;;;;;;;7366786;19;839;-65
2023/04/24 15:51:36;;;;;;;;;;;;;;;;;;7366560;19;1846;-64
2023/04/24 15:54:04;;;;;;;;;;;;;;;;;;7367156;19;842;-64
2023/04/24 15:56:33;;;;;;;;;;;;;;;;;;7366809;19;833;-66
2023/04/24 15:59:01;;;;;;;;;;;;;;;;;;7366153;19;810;-67
2023/04/24 16:01:30;;;;;;;;;;;;;;;;;;7367233;19;1341;-64
2023/04/24 16:03:58;;;;;;;;;;;;;;;;;;7368071;19;826;-65
2023/04/24 16:06:26;;;;;;;;;;;;;;;;;;7367549;19;806;-65
2023/04/24 16:08:54;;;;;;;;;;;;;;;;;;7367328;19;797;-65
2023/04/24 16:11:22;;;;;;;;;;;;;;;;;;7365643;19;1834;-66
2023/04/24 16:13:51;;;;;;;;;;;;;;;;;;7366163;19;766;-65
2023/04/24 16:16:19;;;;;;;;;;;;;;;;;;7367651;19;861;-67
2023/04/24 16:18:48;;;;;;;;;;;;;;;;;;7364864;19;782;-66
2023/04/24 16:21:16;;;;;;;;;;;;;;;;;;7366931;19;1360;-67
2023/04/24 16:23:44;;;;;;;;;;;;;;;;;;7367515;19;776;-67
2023/04/24 16:26:13;;;;;;;;;;;;;;;;;;7366984;19;822;-67
2023/04/24 16:28:42;;;;;;;;;;;;;;;;;;7369154;19;1596;-67
2023/04/24 16:31:10;;;;;;;;;;;;;;;;;;7365780;19;1858;-66
2023/04/24 16:33:38;;;;;;;;;;;;;;;;;;7365113;19;790;-66
2023/04/24 16:36:07;;;;;;;;;;;;;;;;;;7371421;19;1512;-66
2023/04/24 16:38:35;;;;;;;;;;;;;;;;;;7366227;19;880;-67
2023/04/24 16:41:04;;;;;;;;;;;;;;;;;;7366463;19;1298;-67
2023/04/24 16:43:32;;;;;;;;;;;;;;;;;;7365406;19;801;-65
2023/04/24 16:46:00;;;;;;;;;;;;;;;;;;7366319;19;806;-66
2023/04/24 16:48:29;;;;;;;;;;;;;;;;;;7365046;19;873;-66
2023/04/24 16:50:57;;;;;;;;;;;;;;;;;;7370499;19;1845;-67
2023/04/24 16:53:25;;;;;;;;;;;;;;;;;;7366793;19;774;-66
2023/04/24 16:55:53;;;;;;;;;;;;;;;;;;7367172;19;762;-66
2023/04/24 16:58:21;;;;;;;;;;;;;;;;;;7365280;19;862;-66
2023/04/24 17:00:50;;;;;;;;;;;;;;;;;;7367117;19;1251;-66
2023/04/24 17:03:18;;;;;;;;;;;;;;;;;;7367006;19;956;-65
2023/04/24 17:05:46;;;;;;;;;;;;;;;;;;7364638;19;860;-65
2023/04/24 17:08:14;;;;;;;;;;;;;;;;;;7365627;19;764;-68
2023/04/24 17:10:42;;;;;;;;;;;;;;;;;;7366095;19;771;-65
2023/04/24 17:13:10;;;;;;;;;;;;;;;;;;7362744;19;1861;-66
2023/04/24 17:15:39;;;;;;;;;;;;;;;;;;7365671;19;803;-66
2023/04/24 17:18:07;;;;;;;;;;;;;;;;;;7365137;19;861;-65
2023/04/24 17:20:35;;;;;;;;;;;;;;;;;;7364446;19;805;-65
2023/04/24 17:23:04;;;;;;;;;;;;;;;;;;7362123;19;1313;-66
2023/04/24 17:25:32;;;;;;;;;;;;;;;;;;7365954;19;776;-67